createdAt,value
2023-03-20T00:02:41.439Z,8.25
2023-03-20T00:07:42.637Z,8.42
2023-03-20T00:12:44.880Z,8.32
2023-03-20T00:17:43.959Z,8.22
2023-03-20T00:22:45.101Z,8.22
2023-03-20T00:27:46.278Z,8.22
2023-03-20T00:32:47.703Z,8.36
2023-03-20T00:37:49.963Z,8.44
2023-03-20T00:42:49.109Z,8.42
2023-03-20T00:47:50.301Z,8.57
2023-03-20T00:52:51.464Z,8.50
2023-03-20T00:57:52.632Z,8.57
2023-03-20T01:02:53.843Z,8.53
2023-03-20T01:07:55.015Z,8.62
2023-03-20T01:12:57.175Z,8.54
2023-03-20T01:17:57.360Z,8.58
2023-03-20T01:22:56.579Z,8.55
2023-03-20T01:27:57.662Z,8.37
2023-03-20T01:32:59.000Z,8.33
2023-03-20T01:38:00.176Z,8.30
2023-03-20T01:43:01.335Z,8.30
2023-03-20T01:48:02.537Z,8.33
2023-03-20T01:53:03.681Z,8.42
2023-03-20T01:58:05.448Z,8.26
2023-03-20T02:03:04.663Z,8.28
2023-03-20T02:08:05.779Z,8.18
2023-03-20T02:13:06.943Z,8.22
2023-03-20T02:18:08.050Z,8.14
2023-03-20T02:23:09.208Z,8.08
2023-03-20T02:28:10.377Z,8.12
2023-03-20T02:33:13.571Z,8.04
2023-03-20T02:38:13.698Z,8.10
2023-03-20T02:43:12.870Z,8.15
2023-03-20T02:48:14.960Z,8.17
2023-03-20T02:53:14.116Z,8.07
2023-03-20T02:58:15.268Z,7.94
2023-03-20T03:03:16.433Z,7.89
2023-03-20T03:08:16.572Z,8.14
2023-03-20T03:13:18.685Z,8.20
2023-03-20T03:18:17.876Z,8.20
2023-03-20T03:23:19.312Z,8.18
2023-03-20T03:28:20.500Z,8.10
2023-03-20T03:33:21.658Z,8.10
2023-03-20T03:38:22.845Z,8.21
2023-03-20T03:43:23.998Z,8.33
2023-03-20T03:48:25.157Z,8.42
2023-03-20T03:53:26.317Z,8.29
2023-03-20T03:58:28.425Z,8.30
2023-03-20T04:03:27.558Z,8.35
2023-03-20T04:08:28.697Z,8.44
2023-03-20T04:13:29.832Z,8.39
2023-03-20T04:18:31.930Z,8.47
2023-03-20T04:23:31.127Z,8.40
2023-03-20T04:28:33.248Z,8.42
2023-03-20T04:33:33.376Z,8.39
2023-03-20T04:38:33.535Z,8.15
2023-03-20T04:43:32.733Z,8.04
2023-03-20T04:48:33.944Z,8.11
2023-03-20T04:53:35.164Z,8.12
2023-03-20T04:58:36.312Z,8.08
2023-03-20T05:03:37.442Z,8.18
2023-03-20T05:08:38.614Z,8.21
2023-03-20T05:13:39.741Z,8.21
2023-03-20T05:18:40.894Z,8.32
2023-03-20T05:23:42.080Z,8.32
2023-03-20T05:28:43.229Z,8.26
2023-03-20T05:33:44.381Z,8.29
2023-03-20T05:38:45.509Z,8.39
2023-03-20T05:43:46.619Z,8.36
2023-03-20T05:48:47.774Z,8.44
2023-03-20T05:53:48.881Z,8.45
2023-03-20T05:58:50.057Z,8.37
2023-03-20T06:03:51.262Z,8.32
2023-03-20T06:08:52.429Z,8.36
2023-03-20T06:13:54.618Z,8.28
2023-03-20T06:18:53.730Z,8.39
2023-03-20T06:23:53.857Z,8.58
2023-03-20T06:28:55.011Z,8.76
2023-03-20T06:33:58.142Z,8.53
2023-03-20T06:38:58.223Z,8.40
2023-03-20T06:43:57.344Z,8.42
2023-03-20T06:48:58.457Z,8.44
2023-03-20T06:53:59.622Z,8.47
2023-03-20T06:59:00.730Z,8.65
2023-03-20T07:04:02.845Z,8.83
2023-03-20T07:09:03.938Z,9.04
2023-03-20T07:14:03.147Z,9.01
2023-03-20T07:19:05.245Z,9.16
2023-03-20T07:24:11.239Z,9.16
2023-03-20T07:29:04.416Z,9.09
2023-03-20T07:34:05.568Z,9.28
2023-03-20T07:39:06.710Z,9.58
2023-03-20T07:44:10.360Z,9.76
2023-03-20T07:49:08.591Z,9.43
2023-03-20T07:54:08.765Z,9.34
2023-03-20T07:59:08.930Z,9.42
2023-03-20T08:04:08.312Z,9.78
2023-03-20T08:09:10.630Z,9.99
2023-03-20T08:14:10.805Z,10.52
2023-03-20T08:19:10.914Z,11.16
2023-03-20T08:24:10.131Z,11.27
2023-03-20T08:29:11.269Z,11.65
2023-03-20T08:34:12.416Z,11.39
2023-03-20T08:39:13.589Z,11.64
2023-03-20T08:44:15.783Z,11.67
2023-03-20T08:49:15.981Z,11.65
2023-03-20T08:54:15.159Z,11.74
2023-03-20T08:59:16.307Z,11.07
2023-03-20T09:04:17.440Z,10.99
2023-03-20T09:09:19.609Z,11.59
2023-03-20T09:14:19.722Z,12.11
2023-03-20T09:19:18.887Z,11.24
2023-03-20T09:24:18.020Z,11.24
2023-03-20T09:29:22.166Z,11.44
2023-03-20T09:34:21.318Z,11.57
2023-03-20T09:39:24.475Z,12.16
2023-03-20T09:44:23.630Z,11.90
2023-03-20T09:49:25.824Z,12.15
2023-03-20T09:54:28.436Z,12.41
2023-03-20T09:59:26.739Z,12.79
2023-03-20T10:04:26.970Z,11.99
2023-03-20T10:09:26.208Z,11.72
2023-03-20T10:14:27.374Z,11.75
2023-03-20T10:19:28.497Z,12.24
2023-03-20T10:24:29.593Z,12.96
2023-03-20T10:29:30.746Z,13.22
2023-03-20T10:34:31.873Z,12.37
2023-03-20T10:39:33.322Z,12.62
2023-03-20T10:44:39.388Z,12.74
2023-03-20T10:49:34.539Z,12.54
2023-03-20T10:54:36.681Z,12.69
2023-03-20T10:59:35.815Z,12.99
2023-03-20T11:04:37.074Z,13.47
2023-03-20T11:09:38.284Z,12.96
2023-03-20T11:14:39.782Z,12.63
2023-03-20T11:19:38.959Z,13.80
2023-03-20T11:24:41.059Z,12.99
2023-03-20T11:29:40.215Z,13.89
2023-03-20T11:34:41.341Z,14.02
2023-03-20T11:39:43.449Z,12.87
2023-03-20T11:44:42.557Z,12.89
2023-03-20T11:49:43.809Z,13.69
2023-03-20T11:54:44.952Z,13.56
2023-03-20T11:59:46.121Z,13.51
2023-03-20T12:04:47.269Z,13.58
2023-03-20T12:09:48.432Z,13.54
2023-03-20T12:14:50.596Z,13.98
2023-03-20T12:19:49.817Z,13.87
2023-03-20T12:24:50.970Z,14.14
2023-03-20T12:29:51.119Z,13.49
2023-03-20T12:34:52.355Z,13.21
2023-03-20T12:39:53.531Z,13.84
2023-03-20T12:44:54.662Z,14.47
2023-03-20T12:49:55.916Z,14.13
2023-03-20T12:54:58.082Z,13.33
2023-03-20T12:59:57.245Z,13.51
2023-03-20T13:04:58.473Z,13.33
2023-03-20T13:10:00.574Z,13.69
2023-03-20T13:15:00.842Z,13.43
2023-03-20T13:19:59.981Z,13.88
2023-03-20T13:25:01.115Z,13.54
2023-03-20T13:30:03.267Z,13.81
2023-03-20T13:35:04.387Z,13.87
2023-03-20T13:40:05.538Z,13.67
2023-03-20T13:45:04.660Z,13.74
2023-03-20T13:50:05.808Z,13.71
2023-03-20T13:55:07.965Z,13.92
2023-03-20T14:00:07.226Z,13.94
2023-03-20T14:05:08.383Z,13.99
2023-03-20T14:10:09.496Z,13.87
2023-03-20T14:15:10.670Z,13.73
2023-03-20T14:20:10.821Z,13.74
2023-03-20T14:25:11.939Z,13.99
2023-03-20T14:30:13.061Z,14.27
2023-03-20T14:35:14.190Z,13.96
2023-03-20T14:40:15.401Z,13.95
2023-03-20T14:45:17.521Z,13.96
2023-03-20T14:50:16.654Z,13.96
2023-03-20T14:55:17.820Z,14.07
2023-03-20T15:00:17.964Z,13.76
2023-03-20T15:05:19.102Z,13.87
2023-03-20T15:10:21.198Z,13.81
2023-03-20T15:15:20.363Z,13.81
2023-03-20T15:20:21.453Z,13.69
2023-03-20T15:25:22.617Z,13.73
2023-03-20T15:30:23.745Z,13.52
2023-03-20T15:35:24.869Z,13.80
2023-03-20T15:40:25.994Z,13.89
2023-03-20T15:45:28.183Z,13.76
2023-03-20T15:50:27.300Z,13.73
2023-03-20T15:55:28.457Z,13.52
2023-03-20T16:00:29.614Z,13.54
2023-03-20T16:05:30.784Z,13.47
2023-03-20T16:10:32.904Z,13.33
2023-03-20T16:15:32.073Z,13.27
2023-03-20T16:20:33.192Z,13.33
2023-03-20T16:25:34.286Z,13.24
2023-03-20T16:30:35.852Z,13.21
2023-03-20T16:35:35.144Z,13.21
2023-03-20T16:40:36.807Z,13.20
2023-03-20T16:45:36.198Z,13.12
2023-03-20T16:50:37.570Z,13.03
2023-03-20T16:55:36.876Z,12.89
2023-03-20T17:00:38.258Z,12.71
2023-03-20T17:05:37.707Z,12.63
2023-03-20T17:10:38.973Z,12.52
2023-03-20T17:15:40.123Z,12.37
2023-03-20T17:20:42.264Z,12.27
2023-03-20T17:25:41.414Z,12.11
2023-03-20T17:30:42.744Z,11.99
2023-03-20T17:35:44.089Z,12.02
2023-03-20T17:40:45.490Z,11.78
2023-03-20T17:45:46.792Z,11.70
2023-03-20T17:50:48.058Z,11.71
2023-03-20T17:55:49.525Z,11.53
2023-03-20T18:00:50.182Z,11.43
2023-03-20T18:05:50.028Z,11.24
2023-03-20T18:10:51.763Z,10.84
2023-03-20T18:15:51.378Z,10.73
2023-03-20T18:20:51.005Z,10.81
2023-03-20T18:25:49.539Z,10.80
2023-03-20T18:30:55.625Z,10.76
2023-03-20T18:35:51.272Z,10.78
2023-03-20T18:40:50.903Z,10.74
2023-03-20T18:45:50.378Z,10.70
2023-03-20T18:50:52.141Z,10.42
2023-03-20T18:55:52.859Z,10.09
2023-03-20T19:00:52.555Z,9.97
2023-03-20T19:05:52.994Z,9.85
2023-03-20T19:10:53.205Z,9.64
2023-03-20T19:15:53.569Z,9.56
2023-03-20T19:20:53.096Z,9.38
2023-03-20T19:25:53.671Z,9.34
2023-03-20T19:30:53.353Z,9.31
2023-03-20T19:36:03.391Z,9.49
2023-03-20T19:40:53.346Z,9.63
2023-03-20T19:45:52.945Z,9.45
2023-03-20T19:50:53.286Z,9.48
2023-03-20T19:55:53.005Z,9.61
2023-03-20T20:00:59.270Z,9.32
2023-03-20T20:05:53.505Z,9.32
2023-03-20T20:10:53.104Z,9.52
2023-03-20T20:15:52.642Z,9.34
2023-03-20T20:25:53.082Z,9.23
2023-03-20T20:30:52.630Z,9.16
2023-03-20T20:36:34.371Z,9.16
2023-03-20T20:40:52.477Z,9.12
2023-03-20T20:45:52.010Z,9.12
2023-03-20T20:50:51.608Z,9.27
2023-03-20T20:55:51.037Z,9.04
2023-03-20T21:00:55.331Z,8.99
2023-03-20T21:05:52.737Z,9.05
2023-03-20T21:10:53.976Z,8.93
2023-03-20T21:15:55.403Z,8.78
2023-03-20T21:20:54.568Z,8.88
2023-03-20T21:25:55.679Z,8.97
2023-03-20T21:31:20.870Z,9.05
2023-03-20T21:35:56.967Z,9.68
2023-03-20T21:41:00.176Z,10.34
2023-03-20T22:01:39.651Z,11.01
2023-03-20T22:06:53.620Z,11.24
2023-03-20T22:11:44.191Z,11.20
2023-03-20T22:21:55.726Z,10.89
2023-03-20T22:36:56.087Z,10.89
2023-03-20T22:46:16.916Z,10.63
2023-03-20T22:51:00.815Z,10.60
2023-03-20T22:56:02.090Z,10.52
2023-03-20T23:01:03.326Z,10.44
2023-03-20T23:06:05.435Z,10.40
2023-03-20T23:11:04.629Z,10.55
2023-03-20T23:16:06.858Z,10.52
2023-03-20T23:21:05.978Z,10.51
2023-03-20T23:26:07.154Z,10.44
2023-03-20T23:31:10.781Z,10.42
2023-03-20T23:36:21.426Z,10.37
2023-03-20T23:41:09.156Z,10.24
2023-03-20T23:46:08.395Z,10.15
2023-03-20T23:51:09.648Z,9.82
2023-03-20T23:56:10.812Z,9.46
